Time;durP1;ratioP1;P1;durP2;ratioP2;P2;SDS_P1;SDS_P2;PMS_P1;PMS_P2;Temp;Humidity;BMP_temperature;BMP_pressure;BME280_temperature;BME280_humidity;BME280_pressure;Samples;Min_cycle;Max_cycle;Signal;HPM_P1;HPM_P2
2022/02/13 00:00:49;;;;;;;17.83;5.18;;;;;;;2.97;67.34;100034.59;5063683;28;20025;-67
2022/02/13 00:03:15;;;;;;;24.25;7.55;;;;;;;2.97;67.43;100044.88;5064121;28;20031;-67
2022/02/13 00:05:40;;;;;;;17.42;3.83;;;;;;;2.94;67.55;100029.44;5063615;28;20021;-67
2022/02/13 00:08:06;;;;;;;25.30;6.38;;;;;;;2.99;67.57;100027.78;5063761;28;20025;-67
2022/02/13 00:10:31;;;;;;;24.33;6.35;;;;;;;2.95;67.51;99996.13;5063789;28;20029;-67
2022/02/13 00:12:57;;;;;;;22.95;6.18;;;;;;;2.94;67.37;100004.63;5063724;28;20662;-67
2022/02/13 00:15:22;;;;;;;23.35;5.88;;;;;;;2.97;67.51;99991.84;5063409;28;20035;-67
2022/02/13 00:17:47;;;;;;;15.85;6.15;;;;;;;2.95;67.37;99995.25;5063681;28;20083;-67
2022/02/13 00:20:13;;;;;;;19.63;7.57;;;;;;;2.97;67.12;99994.41;5063337;28;20365;-67
2022/02/13 00:22:38;;;;;;;9.52;3.72;;;;;;;2.95;67.04;99992.69;5063563;28;20031;-67
2022/02/13 00:25:04;;;;;;;26.45;6.32;;;;;;;2.96;66.99;99996.94;5063184;28;20093;-68
2022/02/13 00:27:29;;;;;;;22.23;6.45;;;;;;;2.99;67.03;100001.28;5063675;28;20021;-67
2022/02/13 00:29:55;;;;;;;17.65;6.25;;;;;;;2.95;66.91;99988.41;5063284;28;20031;-67
2022/02/13 00:32:21;;;;;;;19.55;6.10;;;;;;;2.99;66.86;99996.16;5063609;28;20029;-68
2022/02/13 00:34:47;;;;;;;20.20;5.95;;;;;;;2.92;66.93;99972.13;5063362;28;20038;-67
2022/02/13 00:37:13;;;;;;;11.82;4.72;;;;;;;3.00;67.00;99973.09;5063339;28;20032;-67
2022/02/13 00:39:38;;;;;;;13.82;5.13;;;;;;;2.95;66.50;99967.91;5044944;28;20013;-67
2022/02/13 00:42:04;;;;;;;22.73;6.30;;;;;;;3.02;66.55;99965.44;5063436;28;20104;-68
2022/02/13 00:44:29;;;;;;;10.38;3.78;;;;;;;2.94;66.56;99947.38;5063466;28;20475;-68
2022/02/13 00:46:55;;;;;;;12.75;4.90;;;;;;;2.97;66.35;99944.84;5045653;28;20055;-68
2022/02/13 00:49:20;;;;;;;21.80;6.72;;;;;;;3.03;66.34;99944.06;5063261;28;20063;-67
2022/02/13 00:51:45;;;;;;;18.90;5.78;;;;;;;3.04;66.44;99917.56;5063235;28;20386;-68
2022/02/13 00:54:10;;;;;;;13.70;4.88;;;;;;;3.03;66.44;99944.94;5063055;28;20028;-66
2022/02/13 00:56:36;;;;;;;14.45;5.22;;;;;;;3.02;66.65;99930.38;5063499;28;20116;-67
2022/02/13 00:59:01;;;;;;;18.60;4.30;;;;;;;3.07;66.60;99920.19;5044930;28;20020;-67
2022/02/13 01:01:26;;;;;;;10.60;4.93;;;;;;;3.00;66.76;99919.25;5063107;28;20056;-65
2022/02/13 01:03:53;;;;;;;22.48;5.18;;;;;;;2.94;67.40;99934.53;5063142;28;20032;-65
2022/02/13 01:06:19;;;;;;;24.33;5.47;;;;;;;2.87;68.27;99937.84;5063229;28;20025;-67
2022/02/13 01:08:44;;;;;;;16.15;6.20;;;;;;;2.73;69.68;99953.88;5062906;28;20021;-67
2022/02/13 01:11:10;;;;;;;19.90;7.28;;;;;;;2.36;71.39;99925.91;5062761;28;20033;-66
2022/02/13 01:13:35;;;;;;;16.30;4.68;;;;;;;2.22;72.66;99890.66;5062550;28;20039;-65
2022/02/13 01:16:01;;;;;;;17.08;5.53;;;;;;;1.98;74.64;99942.31;5062550;28;20031;-63
2022/02/13 01:18:27;;;;;;;14.40;5.35;;;;;;;1.75;75.93;99929.91;5062958;28;20065;-64
2022/02/13 01:20:52;;;;;;;15.48;4.50;;;;;;;1.64;77.08;99954.41;5062708;28;20035;-66
2022/02/13 01:23:19;;;;;;;20.08;5.65;;;;;;;1.45;78.08;99961.72;5062676;28;20040;-65
2022/02/13 01:25:44;;;;;;;19.73;6.15;;;;;;;1.31;79.04;99938.41;5062806;28;20024;-66
2022/02/13 01:28:10;;;;;;;13.45;5.40;;;;;;;1.21;79.89;99942.44;5062708;28;20075;-66
2022/02/13 01:30:35;;;;;;;20.13;6.20;;;;;;;1.07;80.74;99927.63;5062493;28;20033;-66
2022/02/13 01:33:01;;;;;;;22.42;7.95;;;;;;;1.06;81.80;99932.72;5062571;28;20385;-67
2022/02/13 01:35:27;;;;;;;17.52;5.50;;;;;;;1.05;82.00;99913.09;5064807;28;20020;-67
2022/02/13 01:37:53;;;;;;;16.95;6.22;;;;;;;0.97;82.54;99934.25;5066594;28;20021;-67
2022/02/13 01:40:18;;;;;;;28.95;6.20;;;;;;;0.96;82.85;99906.06;5048330;28;20120;-67
2022/02/13 01:42:44;;;;;;;11.63;4.53;;;;;;;0.86;83.19;99885.41;5066675;28;20380;-68
2022/02/13 01:45:09;;;;;;;38.05;7.85;;;;;;;0.96;83.24;99906.94;5066415;28;20234;-68
2022/02/13 01:47:35;;;;;;;28.83;7.35;;;;;;;0.97;83.94;99905.25;5066547;28;20074;-68
2022/02/13 01:50:02;;;;;;;17.08;7.65;;;;;;;1.01;84.10;99904.50;5066606;28;20031;-67
2022/02/13 01:52:28;;;;;;;25.98;9.20;;;;;;;1.07;83.91;99908.91;5066519;28;20021;-67
2022/02/13 01:54:53;;;;;;;23.88;6.78;;;;;;;1.03;84.09;99904.53;5048278;28;20028;-68
2022/02/13 01:57:19;;;;;;;28.92;9.50;;;;;;;1.01;84.19;99893.41;5066421;28;20060;-68
2022/02/13 01:59:44;;;;;;;14.35;4.75;;;;;;;0.95;84.62;99884.78;5065957;28;20024;-67
2022/02/13 02:02:10;;;;;;;16.58;6.15;;;;;;;1.02;84.50;99892.56;5066259;28;20086;-67
2022/02/13 02:04:36;;;;;;;16.55;4.90;;;;;;;1.01;84.77;99885.75;5066080;28;20063;-67
2022/02/13 02:07:02;;;;;;;28.33;6.05;;;;;;;1.06;85.18;99877.34;5048266;28;20029;-66
2022/02/13 02:09:27;;;;;;;19.25;6.15;;;;;;;1.11;85.27;99877.44;5065964;28;20029;-67
2022/02/13 02:11:53;;;;;;;27.50;8.98;;;;;;;1.14;85.34;99862.16;5065977;28;20114;-66
2022/02/13 02:14:19;;;;;;;22.30;7.82;;;;;;;1.18;85.22;99857.97;5065691;28;20025;-67
2022/02/13 02:16:47;;;;;;;22.23;8.23;;;;;;;1.23;84.75;99852.13;5065825;28;20028;-66
2022/02/13 02:19:13;;;;;;;30.45;9.63;;;;;;;1.28;84.65;99856.50;5065793;28;20035;-67
2022/02/13 02:21:44;;;;;;;26.52;9.48;;;;;;;1.22;85.01;99841.88;5047624;28;20088;-66
2022/02/13 02:24:16;;;;;;;21.73;6.82;;;;;;;1.28;84.85;99826.63;5065568;28;20059;-66
2022/02/13 02:26:44;;;;;;;39.85;9.35;;;;;;;1.34;84.84;99844.66;5065705;28;20523;-67
2022/02/13 02:29:09;;;;;;;20.90;6.68;;;;;;;1.32;84.67;99817.34;5065297;28;20033;-67
2022/02/13 02:31:35;;;;;;;19.38;5.53;;;;;;;1.39;84.78;99826.84;5065565;28;20028;-66
2022/02/13 02:34:00;;;;;;;11.40;5.10;;;;;;;1.42;84.57;99811.56;5065596;28;20029;-67
2022/02/13 02:36:26;;;;;;;26.00;10.10;;;;;;;1.45;84.67;99816.72;5065615;28;20020;-66
2022/02/13 02:38:51;;;;;;;18.85;5.82;;;;;;;1.50;84.68;99826.22;5065618;28;20075;-66
2022/02/13 02:41:17;;;;;;;29.70;8.43;;;;;;;1.57;84.59;99813.56;5065376;28;20214;-66
2022/02/13 02:43:43;;;;;;;27.90;8.35;;;;;;;1.61;84.19;99810.22;5065573;28;20021;-66
2022/02/13 02:46:10;;;;;;;14.45;3.92;;;;;;;1.61;84.18;99809.38;5046792;28;20425;-66
2022/02/13 02:48:35;;;;;;;28.45;7.07;;;;;;;1.69;83.81;99792.44;5065414;28;20025;-66
2022/02/13 02:51:02;;;;;;;31.48;8.27;;;;;;;1.87;83.20;99796.16;5064942;28;20094;-67
2022/02/13 02:53:28;;;;;;;26.77;8.70;;;;;;;1.85;83.01;99785.91;5065275;28;20029;-67
2022/02/13 02:55:54;;;;;;;30.90;9.25;;;;;;;1.89;82.81;99791.06;5065216;28;20021;-67
2022/02/13 02:58:20;;;;;;;23.98;8.18;;;;;;;1.90;82.55;99785.97;5065510;28;20013;-67
2022/02/13 03:00:46;;;;;;;23.92;7.32;;;;;;;1.89;82.41;99788.50;5064835;28;20031;-68
2022/02/13 03:03:11;;;;;;;13.90;5.95;;;;;;;1.83;82.30;99779.91;5065006;28;20085;-68
2022/02/13 03:05:37;;;;;;;15.48;7.28;;;;;;;1.84;82.57;99784.19;5065109;28;20021;-67
2022/02/13 03:08:03;;;;;;;26.20;7.15;;;;;;;1.83;82.66;99774.78;5064916;28;20025;-67
2022/02/13 03:10:28;;;;;;;23.05;7.22;;;;;;;1.88;82.34;99763.75;5064982;28;20035;-68
2022/02/13 03:12:54;;;;;;;33.05;10.52;;;;;;;1.90;82.52;99757.81;5064951;28;20104;-68
2022/02/13 03:15:19;;;;;;;15.55;5.78;;;;;;;1.91;82.42;99749.31;5064773;28;20029;-69
2022/02/13 03:17:44;;;;;;;15.30;5.22;;;;;;;1.93;82.38;99760.44;5064981;28;20099;-68
2022/02/13 03:20:11;;;;;;;22.50;4.57;;;;;;;1.97;82.26;99751.09;5064774;28;20036;-68
2022/02/13 03:22:36;;;;;;;24.85;8.90;;;;;;;1.93;82.17;99744.22;5064829;28;20326;-68
2022/02/13 03:25:03;;;;;;;22.63;7.85;;;;;;;2.01;82.01;99736.66;5064670;28;20040;-68
2022/02/13 03:27:29;;;;;;;28.25;7.63;;;;;;;2.05;81.84;99738.41;5064514;28;20028;-69
2022/02/13 03:29:54;;;;;;;20.92;7.47;;;;;;;2.08;81.60;99739.34;5063608;28;20036;-68
2022/02/13 03:32:20;;;;;;;22.40;6.63;;;;;;;2.09;81.52;99735.09;5063992;28;20032;-68
2022/02/13 03:34:45;;;;;;;26.10;6.68;;;;;;;2.13;81.37;99723.16;5064380;28;20021;-68
2022/02/13 03:37:11;;;;;;;10.55;4.90;;;;;;;2.14;81.37;99718.06;5064562;28;20044;-66
2022/02/13 03:39:38;;;;;;;45.17;9.77;;;;;;;2.12;81.16;99731.69;5064630;28;20048;-68
2022/02/13 03:42:04;;;;;;;30.13;9.85;;;;;;;2.17;81.11;99730.09;5064481;28;20100;-69
2022/02/13 03:44:29;;;;;;;28.27;8.90;;;;;;;2.18;80.96;99724.09;5064364;28;20032;-68
2022/02/13 03:46:54;;;;;;;17.20;6.38;;;;;;;2.17;80.95;99715.56;5064289;28;20032;-67
2022/02/13 03:49:20;;;;;;;17.52;6.40;;;;;;;2.26;80.71;99726.78;5064340;28;20078;-67
2022/02/13 03:51:45;;;;;;;27.23;8.07;;;;;;;2.26;80.61;99722.53;5064014;28;20025;-67
2022/02/13 03:54:11;;;;;;;24.17;8.60;;;;;;;2.32;80.39;99726.88;5064248;28;20032;-67
2022/02/13 03:56:36;;;;;;;30.20;7.32;;;;;;;2.29;80.24;99721.69;5045812;28;20108;-67
2022/02/13 03:59:01;;;;;;;28.02;6.10;;;;;;;2.32;80.18;99708.94;5063594;28;20017;-69
2022/02/13 04:01:27;;;;;;;16.48;7.18;;;;;;;2.38;80.04;99715.88;5045731;28;20025;-68
2022/02/13 04:03:52;;;;;;;12.98;5.05;;;;;;;2.41;79.77;99726.16;5063501;28;20496;-67
2022/02/13 04:06:17;;;;;;;21.17;6.43;;;;;;;2.41;79.41;99718.47;5063225;28;20074;-66
2022/02/13 04:08:43;;;;;;;22.90;7.30;;;;;;;2.41;79.28;99724.44;5062943;28;20029;-68
2022/02/13 04:11:08;;;;;;;17.88;5.13;;;;;;;2.53;79.17;99725.44;5062826;28;20031;-68
2022/02/13 04:13:33;;;;;;;23.15;7.10;;;;;;;2.47;79.05;99721.97;5063950;28;20108;-68
2022/02/13 04:15:59;;;;;;;26.08;9.85;;;;;;;2.55;79.04;99716.09;5063921;28;20029;-68
2022/02/13 04:18:24;;;;;;;20.45;6.72;;;;;;;2.57;78.99;99715.25;5063899;28;20029;-68
2022/02/13 04:20:49;;;;;;;25.63;9.13;;;;;;;2.59;78.96;99716.16;5063475;28;20057;-68
2022/02/13 04:23:15;;;;;;;25.85;8.98;;;;;;;2.62;78.79;99719.59;5063543;28;20039;-68
2022/02/13 04:25:40;;;;;;;14.82;6.03;;;;;;;2.65;78.95;99722.19;5063675;28;20029;-68
2022/02/13 04:28:06;;;;;;;30.88;8.38;;;;;;;2.62;79.17;99715.31;5045378;28;20017;-69
2022/02/13 04:30:31;;;;;;;18.38;5.70;;;;;;;2.58;79.34;99714.44;5063366;28;20085;-68
2022/02/13 04:32:57;;;;;;;30.65;7.55;;;;;;;2.46;80.09;99707.44;5063366;28;20577;-67
2022/02/13 04:35:23;;;;;;;19.25;7.63;;;;;;;2.41;80.83;99692.84;5063494;28;20055;-68
2022/02/13 04:37:53;;;;;;;19.35;7.47;;;;;;;2.32;81.47;99704.69;5063546;28;20021;-68
2022/02/13 04:40:19;;;;;;;21.25;6.50;;;;;;;2.26;81.88;99690.91;5063240;28;20021;-66
2022/02/13 04:42:45;;;;;;;34.00;9.80;;;;;;;2.05;82.58;99682.97;5063087;28;20074;-69
2022/02/13 04:45:11;;;;;;;22.92;7.15;;;;;;;2.15;82.90;99675.41;5063017;28;20033;-69
2022/02/13 04:47:36;;;;;;;27.58;10.82;;;;;;;2.12;83.43;99694.16;5063243;28;20036;-68
2022/02/13 04:50:02;;;;;;;27.75;8.93;;;;;;;2.05;84.05;99702.56;5063088;28;20238;-69
2022/02/13 04:52:27;;;;;;;26.05;9.05;;;;;;;2.03;84.28;99705.09;5063160;28;20465;-69
2022/02/13 04:54:52;;;;;;;29.55;10.98;;;;;;;2.02;84.66;99695.72;5063190;28;20051;-69
2022/02/13 04:57:18;;;;;;;33.03;10.60;;;;;;;2.04;84.70;99695.75;5063104;28;20021;-69
2022/02/13 04:59:43;;;;;;;13.98;5.45;;;;;;;2.02;84.92;99693.16;5062715;28;20032;-70
2022/02/13 05:02:09;;;;;;;38.45;11.10;;;;;;;1.91;85.38;99674.22;5062921;28;20029;-71
2022/02/13 05:04:34;;;;;;;32.50;10.65;;;;;;;2.01;85.58;99690.56;5044921;28;20017;-70
2022/02/13 05:06:59;;;;;;;22.13;8.20;;;;;;;1.94;85.84;99675.13;5062924;28;20017;-69
2022/02/13 05:09:25;;;;;;;44.05;11.25;;;;;;;1.95;86.21;99670.88;5061986;28;20021;-69
2022/02/13 05:11:51;;;;;;;34.10;12.25;;;;;;;1.92;86.30;99671.66;5062781;28;20417;-69
2022/02/13 05:14:16;;;;;;;23.23;7.40;;;;;;;1.90;86.57;99673.34;5062948;28;20029;-70
2022/02/13 05:16:41;;;;;;;33.35;7.80;;;;;;;1.88;86.87;99674.16;5063174;28;20017;-69
2022/02/13 05:19:07;;;;;;;28.35;7.70;;;;;;;1.85;87.14;99662.19;5062843;28;20017;-69
2022/02/13 05:21:33;;;;;;;26.25;7.78;;;;;;;1.84;87.33;99656.19;5062667;28;20021;-70
2022/02/13 05:23:58;;;;;;;27.45;7.57;;;;;;;1.81;87.47;99647.59;5062661;28;20053;-70
2022/02/13 05:26:24;;;;;;;36.30;10.27;;;;;;;1.71;87.74;99655.16;5062706;28;20039;-70
2022/02/13 05:28:52;;;;;;;38.08;11.35;;;;;;;1.70;87.79;99627.84;5062645;28;20025;-71
2022/02/13 05:31:17;;;;;;;21.52;8.68;;;;;;;1.79;87.92;99641.63;5062243;28;20017;-70
2022/02/13 05:33:43;;;;;;;30.65;9.85;;;;;;;1.75;88.16;99643.25;5062725;28;20533;-70
2022/02/13 05:36:08;;;;;;;35.47;10.85;;;;;;;1.78;88.35;99639.88;5062669;28;20021;-72
2022/02/13 05:38:33;;;;;;;25.13;8.13;;;;;;;1.76;88.64;99624.50;5044627;28;20032;-70
2022/02/13 05:40:59;;;;;;;29.13;10.02;;;;;;;1.79;88.92;99623.72;5062443;28;20025;-70
2022/02/13 05:43:24;;;;;;;42.40;12.18;;;;;;;1.82;88.90;99619.47;5062591;28;20035;-69
2022/02/13 05:45:50;;;;;;;55.58;11.93;;;;;;;1.79;89.03;99616.03;5062332;28;20029;-69
2022/02/13 05:48:15;;;;;;;35.10;11.30;;;;;;;1.84;89.55;99614.38;5044404;28;20120;-69
2022/02/13 05:50:41;;;;;;;29.10;9.57;;;;;;;1.84;89.71;99612.69;5062557;28;20102;-70
2022/02/13 05:53:07;;;;;;;49.50;12.52;;;;;;;1.80;89.93;99602.38;5062727;28;20052;-70
2022/02/13 05:55:32;;;;;;;33.13;9.43;;;;;;;1.90;90.36;99609.34;5062676;28;20029;-69
2022/02/13 05:57:57;;;;;;;17.80;6.43;;;;;;;1.93;90.51;99585.50;5062482;28;20017;-70
2022/02/13 06:00:23;;;;;;;30.95;9.48;;;;;;;1.99;90.79;99598.38;5062385;28;20104;-69
2022/02/13 06:02:48;;;;;;;39.10;12.27;;;;;;;1.94;91.11;99587.22;5063095;28;20021;-70
2022/02/13 06:05:13;;;;;;;15.73;5.78;;;;;;;1.97;91.34;99593.25;5062592;28;20132;-68
2022/02/13 06:07:40;;;;;;;41.38;9.13;;;;;;;2.00;91.77;99594.13;5044514;28;20028;-69
2022/02/13 06:10:08;;;;;;;19.88;7.30;;;;;;;2.04;91.92;99594.19;5062351;28;20084;-68
2022/02/13 06:12:33;;;;;;;43.78;13.27;;;;;;;2.10;92.14;99604.50;5062490;28;20033;-68
2022/02/13 06:14:59;;;;;;;25.83;6.63;;;;;;;1.97;91.91;99571.88;5062061;28;20032;-67
2022/02/13 06:17:24;;;;;;;29.80;7.35;;;;;;;2.06;92.21;99591.66;5062480;28;20025;-68
2022/02/13 06:19:49;;;;;;;34.53;10.23;;;;;;;2.18;92.44;99607.16;5062262;28;20497;-69
2022/02/13 06:22:15;;;;;;;40.20;10.63;;;;;;;2.11;92.44;99587.44;5065519;28;20021;-68
2022/02/13 06:24:40;;;;;;;29.48;8.50;;;;;;;2.06;92.51;99564.31;5065955;28;20080;-68
2022/02/13 06:27:06;;;;;;;28.33;8.60;;;;;;;2.26;92.31;99573.09;5065916;28;20032;-69
2022/02/13 06:29:31;;;;;;;40.03;9.10;;;;;;;2.30;92.09;99580.00;5065673;28;20029;-68
2022/02/13 06:31:57;;;;;;;27.25;7.72;;;;;;;2.29;92.24;99581.69;5065629;28;20045;-69
2022/02/13 06:34:23;;;;;;;34.42;10.10;;;;;;;2.36;92.22;99582.63;5065464;28;20024;-68
2022/02/13 06:36:48;;;;;;;38.42;8.90;;;;;;;2.36;92.41;99572.38;5065858;28;20059;-68
2022/02/13 06:39:14;;;;;;;21.60;6.85;;;;;;;2.40;92.39;99579.25;5047538;28;20074;-69
2022/02/13 06:41:39;;;;;;;21.00;7.30;;;;;;;2.41;92.14;99577.56;5065273;28;20025;-69
2022/02/13 06:44:05;;;;;;;35.88;9.65;;;;;;;2.35;92.28;99563.81;5065300;28;20051;-69
2022/02/13 06:46:30;;;;;;;34.15;9.88;;;;;;;2.46;92.34;99579.31;5065172;28;20110;-69
2022/02/13 06:48:55;;;;;;;28.85;8.35;;;;;;;2.48;92.43;99569.09;5065328;28;20029;-69
2022/02/13 06:51:21;;;;;;;34.65;8.13;;;;;;;2.47;92.34;99580.19;5065265;28;20021;-69
2022/02/13 06:53:46;;;;;;;33.08;9.00;;;;;;;2.48;92.47;99579.34;5065229;28;20021;-69
2022/02/13 06:56:13;;;;;;;25.17;6.70;;;;;;;2.53;92.25;99569.13;5065147;28;20033;-69
2022/02/13 06:58:39;;;;;;;32.95;8.90;;;;;;;2.50;91.97;99572.53;5047103;28;20100;-69
2022/02/13 07:01:04;;;;;;;34.78;8.27;;;;;;;2.55;92.07;99580.28;5064915;28;20531;-69
2022/02/13 07:03:29;;;;;;;30.63;8.85;;;;;;;2.57;92.30;99589.69;5065219;28;20040;-69
2022/02/13 07:05:55;;;;;;;28.13;7.13;;;;;;;2.60;92.30;99583.75;5065156;28;20076;-68
2022/02/13 07:08:20;;;;;;;28.05;7.40;;;;;;;2.63;92.37;99588.91;5065044;28;20039;-70
2022/02/13 07:10:45;;;;;;;27.58;7.57;;;;;;;2.61;92.32;99580.34;5064917;28;20032;-68
2022/02/13 07:13:11;;;;;;;30.38;7.90;;;;;;;2.63;92.01;99576.09;5065158;28;20068;-69
2022/02/13 07:15:37;;;;;;;20.95;6.45;;;;;;;2.64;92.27;99577.81;5064795;28;20037;-69
2022/02/13 07:18:03;;;;;;;20.23;6.95;;;;;;;2.61;92.34;99572.66;5064724;28;20017;-69
2022/02/13 07:20:28;;;;;;;41.15;10.13;;;;;;;2.68;92.43;99584.69;5046604;28;20028;-68
2022/02/13 07:22:54;;;;;;;18.77;7.07;;;;;;;2.65;92.46;99578.69;5064605;28;20047;-69
2022/02/13 07:25:19;;;;;;;34.17;10.35;;;;;;;2.74;92.49;99573.63;5064220;28;20056;-69
2022/02/13 07:27:44;;;;;;;27.83;9.95;;;;;;;2.75;92.45;99575.34;5063539;28;20025;-69
2022/02/13 07:30:13;;;;;;;40.17;11.07;;;;;;;2.81;92.27;99572.84;5063298;28;20029;-69
2022/02/13 07:32:40;;;;;;;24.45;6.55;;;;;;;2.78;92.34;99561.72;5063804;28;20044;-69
2022/02/13 07:35:09;;;;;;;20.83;7.05;;;;;;;2.80;92.29;99571.13;5064338;28;20029;-70
2022/02/13 07:37:35;;;;;;;25.65;6.88;;;;;;;2.83;92.24;99573.72;5046845;28;20017;-70
2022/02/13 07:40:01;;;;;;;35.30;10.48;;;;;;;2.84;92.47;99566.91;5063940;28;20205;-70
2022/02/13 07:42:26;;;;;;;33.45;10.10;;;;;;;2.93;92.25;99577.25;5064046;28;20028;-71
2022/02/13 07:44:52;;;;;;;23.45;6.95;;;;;;;2.93;92.16;99576.38;5063710;28;20452;-70
2022/02/13 07:47:17;;;;;;;39.90;11.43;;;;;;;2.95;92.14;99574.69;5064165;28;20033;-71
2022/02/13 07:49:42;;;;;;;54.92;11.68;;;;;;;3.00;92.13;99583.31;5064191;28;20026;-71
2022/02/13 07:52:08;;;;;;;29.98;8.68;;;;;;;2.96;92.02;99567.03;5064053;28;20048;-69
2022/02/13 07:54:34;;;;;;;19.63;6.03;;;;;;;2.95;91.93;99549.94;5064232;28;20039;-68
2022/02/13 07:56:59;;;;;;;38.40;9.27;;;;;;;3.00;91.91;99570.47;5064185;28;20110;-71
2022/02/13 07:59:25;;;;;;;42.75;9.88;;;;;;;3.02;91.76;99571.31;5063658;28;20135;-71
2022/02/13 08:01:50;;;;;;;30.95;7.68;;;;;;;2.99;92.03;99562.78;5064086;28;20483;-70
2022/02/13 08:04:15;;;;;;;23.35;6.72;;;;;;;3.04;92.02;99558.53;5063882;28;20071;-69
2022/02/13 08:06:41;;;;;;;41.47;10.15;;;;;;;2.97;92.04;99568.72;5045689;28;20036;-70
2022/02/13 08:09:06;;;;;;;22.92;6.95;;;;;;;2.86;92.07;99524.19;5063620;28;20123;-68
2022/02/13 08:11:32;;;;;;;17.35;5.82;;;;;;;3.02;92.00;99555.94;5063676;28;20035;-68
2022/02/13 08:13:58;;;;;;;41.75;9.50;;;;;;;2.99;92.16;99540.53;5063715;28;20024;-70
2022/02/13 08:16:24;;;;;;;15.07;4.97;;;;;;;3.04;91.99;99558.53;5063671;28;20025;-69
2022/02/13 08:18:49;;;;;;;21.25;7.18;;;;;;;3.03;92.15;99561.94;5063506;28;20086;-69
2022/02/13 08:21:15;;;;;;;33.90;8.48;;;;;;;3.04;92.15;99561.09;5063491;28;20082;-69
2022/02/13 08:23:40;;;;;;;31.80;10.77;;;;;;;2.99;92.25;99558.47;5063284;28;20056;-70
2022/02/13 08:26:06;;;;;;;30.15;7.70;;;;;;;3.05;92.36;99570.50;5063582;28;20040;-69
2022/02/13 08:28:34;;;;;;;43.03;10.98;;;;;;;3.08;92.23;99567.97;5045177;28;20028;-68
2022/02/13 08:31:01;;;;;;;30.63;8.60;;;;;;;3.09;92.32;99573.13;5063262;28;20029;-68
2022/02/13 08:33:26;;;;;;;37.55;9.48;;;;;;;3.02;92.23;99545.69;5063699;28;20093;-68
2022/02/13 08:35:52;;;;;;;27.33;7.47;;;;;;;3.12;92.14;99567.16;5063290;28;20024;-68
2022/02/13 08:38:18;;;;;;;37.38;9.75;;;;;;;3.11;92.19;99555.19;5063151;28;20100;-67
2022/02/13 08:40:43;;;;;;;27.52;8.32;;;;;;;3.10;92.37;99553.44;5063366;28;20029;-67
2022/02/13 08:43:09;;;;;;;34.88;8.80;;;;;;;3.13;92.27;99553.47;5063291;28;20021;-66
2022/02/13 08:45:36;;;;;;;44.75;12.20;;;;;;;3.10;92.32;99566.25;5062917;28;20029;-65
2022/02/13 08:48:01;;;;;;;29.25;6.97;;;;;;;3.10;92.40;99548.31;5063162;28;20036;-66
2022/02/13 08:50:27;;;;;;;36.53;9.13;;;;;;;3.15;92.42;99550.91;5062673;28;20025;-66
2022/02/13 08:52:53;;;;;;;45.80;13.85;;;;;;;3.14;92.52;99537.25;5062909;28;20090;-64
2022/02/13 08:55:19;;;;;;;46.47;13.50;;;;;;;3.20;92.15;99551.81;5062892;28;20043;-67
2022/02/13 08:57:46;;;;;;;23.80;9.25;;;;;;;3.16;92.03;99548.38;5062877;28;20033;-65
2022/02/13 09:00:14;;;;;;;32.63;10.82;;;;;;;3.16;91.96;99552.66;5062447;28;20111;-67
2022/02/13 09:02:40;;;;;;;33.83;10.10;;;;;;;3.12;91.99;99551.75;5062406;28;20044;-67
2022/02/13 09:05:07;;;;;;;35.63;11.43;;;;;;;3.21;91.97;99544.13;5063056;28;20036;-67
2022/02/13 09:07:39;;;;;;;35.03;10.60;;;;;;;3.24;91.87;99550.13;5062764;28;20017;-63
2022/02/13 09:10:06;;;;;;;43.85;9.70;;;;;;;3.27;91.53;99547.59;5062334;28;20028;-63
2022/02/13 09:12:32;;;;;;;43.72;12.48;;;;;;;3.27;91.38;99551.03;5062603;28;20107;-64
2022/02/13 09:14:58;;;;;;;26.30;8.77;;;;;;;3.25;91.36;99547.59;5062427;28;20454;-65
2022/02/13 09:17:23;;;;;;;35.95;10.10;;;;;;;3.23;91.35;99551.84;5062691;28;20094;-66
2022/02/13 09:19:49;;;;;;;33.83;7.65;;;;;;;3.17;91.31;99539.84;5062227;28;20392;-66
2022/02/13 09:22:14;;;;;;;38.10;12.05;;;;;;;3.19;91.31;99556.09;5062304;28;20025;-66
2022/02/13 09:24:41;;;;;;;52.22;13.80;;;;;;;3.21;91.39;99556.13;5061983;28;20048;-66
2022/02/13 09:27:07;;;;;;;27.90;8.93;;;;;;;3.22;91.40;99555.25;5044228;28;20453;-67
2022/02/13 09:29:32;;;;;;;43.65;12.90;;;;;;;3.25;91.22;99569.81;5062014;28;20017;-66
2022/02/13 09:31:57;;;;;;;38.22;10.98;;;;;;;3.25;91.18;99551.84;5062526;28;20081;-67
2022/02/13 09:34:28;;;;;;;33.15;11.02;;;;;;;3.31;90.84;99563.03;5062455;28;20021;-66
2022/02/13 09:36:55;;;;;;;29.03;9.30;;;;;;;3.25;90.81;99544.16;5044219;28;20021;-66
2022/02/13 09:39:20;;;;;;;35.72;9.50;;;;;;;3.25;90.79;99550.16;5044294;28;20024;-67
2022/02/13 09:41:46;;;;;;;26.60;9.07;;;;;;;3.27;90.52;99551.03;5062296;28;20021;-68
2022/02/13 09:44:11;;;;;;;27.65;9.90;;;;;;;3.26;90.73;99553.59;5062388;28;20029;-66
2022/02/13 09:46:37;;;;;;;32.22;8.82;;;;;;;3.29;90.61;99535.66;5062395;28;20021;-67
2022/02/13 09:49:05;;;;;;;45.30;12.35;;;;;;;3.30;90.65;99545.94;5044320;28;20035;-68
2022/02/13 09:51:31;;;;;;;33.10;10.20;;;;;;;3.31;90.46;99551.91;5062357;28;20025;-67
2022/02/13 09:53:56;;;;;;;27.45;7.90;;;;;;;3.28;90.62;99539.03;5062334;28;20056;-67
2022/02/13 09:56:21;;;;;;;28.00;11.38;;;;;;;3.30;90.71;99555.31;5064146;28;20029;-67
2022/02/13 09:58:47;;;;;;;30.10;8.27;;;;;;;3.35;90.64;99556.22;5066331;28;20051;-68
2022/02/13 10:01:12;;;;;;;29.83;8.25;;;;;;;3.31;90.90;99546.75;5066037;28;20111;-68
2022/02/13 10:03:40;;;;;;;32.47;12.57;;;;;;;3.33;90.74;99550.22;5066320;28;20084;-68
2022/02/13 10:06:12;;;;;;;22.75;7.18;;;;;;;3.37;90.60;99546.81;5066173;28;20021;-68
2022/02/13 10:08:45;;;;;;;25.67;8.13;;;;;;;3.37;90.54;99543.41;5048120;28;20021;-68
2022/02/13 10:11:23;;;;;;;33.13;10.52;;;;;;;3.44;90.40;99538.31;5065849;28;20037;-67
2022/02/13 10:13:57;;;;;;;25.23;9.95;;;;;;;3.42;90.38;99550.28;5066110;28;20027;-68
2022/02/13 10:16:30;;;;;;;36.75;10.40;;;;;;;3.47;90.24;99546.03;5065519;28;20048;-68
2022/02/13 10:19:15;;;;;;;33.10;9.80;;;;;;;3.50;90.35;99534.09;5065976;28;20048;-68
2022/02/13 10:21:44;;;;;;;39.38;13.98;;;;;;;3.52;90.37;99545.19;5065834;28;20058;-69
2022/02/13 10:24:29;;;;;;;36.60;12.32;;;;;;;3.50;90.49;99545.19;5065723;28;20045;-68
2022/02/13 10:26:57;;;;;;;39.65;12.85;;;;;;;3.51;90.45;99540.94;5047833;28;20017;-68
2022/02/13 10:29:27;;;;;;;30.92;9.43;;;;;;;3.49;90.51;99534.91;5065718;28;20063;-70
2022/02/13 10:32:17;;;;;;;29.33;9.57;;;;;;;3.46;90.49;99539.19;5065477;28;20021;-69
2022/02/13 10:35:07;;;;;;;22.70;7.20;;;;;;;3.50;90.64;99540.06;5065894;28;20036;-68
2022/02/13 10:37:46;;;;;;;35.45;12.48;;;;;;;3.50;90.67;99526.38;5058022;28;20033;-68
2022/02/13 10:40:22;;;;;;;39.80;13.38;;;;;;;3.54;90.75;99528.09;5065633;28;20104;-68
2022/02/13 10:42:48;;;;;;;42.42;13.73;;;;;;;3.56;90.96;99541.81;5065533;28;20075;-67
2022/02/13 10:45:22;;;;;;;32.38;9.27;;;;;;;3.56;90.78;99523.84;5065412;28;20028;-67
2022/02/13 10:47:50;;;;;;;24.98;10.20;;;;;;;3.54;90.59;99528.09;5065932;28;20053;-68
2022/02/13 10:50:17;;;;;;;31.85;9.40;;;;;;;3.54;90.59;99539.25;5065437;28;20326;-67
2022/02/13 10:52:47;;;;;;;32.67;10.90;;;;;;;3.51;90.69;99526.41;5065513;28;20029;-67
2022/02/13 10:55:13;;;;;;;32.63;11.18;;;;;;;3.49;90.61;99532.34;5065583;28;20106;-67
2022/02/13 10:57:41;;;;;;;20.42;8.38;;;;;;;3.48;90.74;99523.81;5065370;28;20021;-67
2022/02/13 11:00:08;;;;;;;45.20;12.02;;;;;;;3.36;90.68;99498.91;5065062;28;20052;-67
2022/02/13 11:02:34;;;;;;;36.42;9.25;;;;;;;3.50;90.59;99529.78;5065080;28;20044;-67
2022/02/13 11:05:02;;;;;;;29.27;10.43;;;;;;;3.45;90.74;99531.50;5064720;28;20025;-67
2022/02/13 11:07:28;;;;;;;33.28;12.45;;;;;;;3.49;90.50;99540.03;5063550;28;20029;-68
2022/02/13 11:09:55;;;;;;;23.73;8.63;;;;;;;3.51;90.34;99521.25;5064952;28;20031;-67
2022/02/13 11:12:21;;;;;;;27.83;10.85;;;;;;;3.54;90.52;99522.97;5064685;28;20012;-66
2022/02/13 11:14:47;;;;;;;37.85;10.70;;;;;;;3.56;90.30;99508.47;5064892;28;20205;-67
2022/02/13 11:17:30;;;;;;;19.83;8.07;;;;;;;3.56;90.40;99521.28;5065022;28;20150;-65
2022/02/13 11:19:56;;;;;;;31.40;9.90;;;;;;;3.56;90.20;99517.00;5064616;28;20028;-67
2022/02/13 11:22:33;;;;;;;42.95;13.20;;;;;;;3.53;90.04;99516.13;5064422;28;20035;-66
2022/02/13 11:24:59;;;;;;;26.92;9.48;;;;;;;3.53;90.04;99511.00;5064577;28;20037;-65
2022/02/13 11:27:25;;;;;;;19.13;10.02;;;;;;;3.52;89.79;99504.13;5063908;28;20032;-68